KGEV

Ashe County Airport

Jefferson, North Carolina, USA
METAR KGEV 231210Z AUTO 27013G19KT 10SM CLR 08/00 A3019 RMK AO2 T00770001
Observed Flight Rules
Oct-23 @ 12:10 UTC (29 minutes ago) Visual Flight Rules
Wind Visibility Clouds
270° at 13 knots
 Gusting to 19 knots
10 miles
  • Clear skies
Temperatures Readings
Current 8°C / 46°F
Dewpoint 0°C / 32°F
Humidity 57%
Altimeter 30.19" Hg
Pressure 1022 hPa
Elevation 969
METAR KGEV 231210Z AUTO 27013G19KT 10SM CLR 08/00 A3019 RMK AO2 T00770001
Observed Flight Rules
Oct-23 @ 12:10 UTC
(29 minutes ago)
VFR
Wind Visibility
270° at 13 knots
 Gusting to 19 knots
10 miles
Clouds
  • Clear skies
Temperature Dewpoint
8°C / 46°F 0°C / 32°F
Humidity Altimeter Pressure
57% 30.19" Hg 1022 hPa